sensor_id;sensor_type;location;lat;lon;timestamp;temperature;humidity
69281;SHT31;56392;51.082;17.080;2023-07-22T00:05:29;19.03;75.86
69281;SHT31;56392;51.082;17.080;2023-07-22T00:10:52;18.91;76.03
69281;SHT31;56392;51.082;17.080;2023-07-22T00:16:17;18.88;76.08
69281;SHT31;56392;51.082;17.080;2023-07-22T00:21:40;18.81;76.85
69281;SHT31;56392;51.082;17.080;2023-07-22T00:27:03;18.71;77.77
69281;SHT31;56392;51.082;17.080;2023-07-22T00:32:29;18.62;77.17
69281;SHT31;56392;51.082;17.080;2023-07-22T00:37:52;18.55;77.23
69281;SHT31;56392;51.082;17.080;2023-07-22T00:43:15;18.47;77.56
69281;SHT31;56392;51.082;17.080;2023-07-22T00:48:39;18.41;77.31
69281;SHT31;56392;51.082;17.080;2023-07-22T00:54:03;18.41;77.52
69281;SHT31;56392;51.082;17.080;2023-07-22T00:59:27;18.31;76.69
69281;SHT31;56392;51.082;17.080;2023-07-22T01:04:52;18.23;77.90
69281;SHT31;56392;51.082;17.080;2023-07-22T01:10:15;18.18;77.61
69281;SHT31;56392;51.082;17.080;2023-07-22T01:15:38;18.21;77.81
69281;SHT31;56392;51.082;17.080;2023-07-22T01:21:03;18.21;78.27
69281;SHT31;56392;51.082;17.080;2023-07-22T01:26:30;18.21;77.99
69281;SHT31;56392;51.082;17.080;2023-07-22T01:31:54;18.14;78.00
69281;SHT31;56392;51.082;17.080;2023-07-22T01:37:17;18.07;78.11
69281;SHT31;56392;51.082;17.080;2023-07-22T01:42:42;18.04;78.30
69281;SHT31;56392;51.082;17.080;2023-07-22T01:48:05;18.00;78.03
69281;SHT31;56392;51.082;17.080;2023-07-22T01:53:29;17.98;78.29
69281;SHT31;56392;51.082;17.080;2023-07-22T01:58:53;17.93;77.93
69281;SHT31;56392;51.082;17.080;2023-07-22T02:04:16;17.89;77.47
69281;SHT31;56392;51.082;17.080;2023-07-22T02:09:39;17.80;78.03
69281;SHT31;56392;51.082;17.080;2023-07-22T02:15:05;17.74;78.24
69281;SHT31;56392;51.082;17.080;2023-07-22T02:20:28;17.69;78.05
69281;SHT31;56392;51.082;17.080;2023-07-22T02:25:52;17.63;78.20
69281;SHT31;56392;51.082;17.080;2023-07-22T02:31:16;17.60;78.27
69281;SHT31;56392;51.082;17.080;2023-07-22T02:36:40;17.63;78.58
69281;SHT31;56392;51.082;17.080;2023-07-22T02:42:03;17.63;78.91
69281;SHT31;56392;51.082;17.080;2023-07-22T02:47:27;17.69;79.04
69281;SHT31;56392;51.082;17.080;2023-07-22T02:52:51;17.70;78.69
69281;SHT31;56392;51.082;17.080;2023-07-22T02:58:14;17.69;79.17
69281;SHT31;56392;51.082;17.080;2023-07-22T03:03:39;17.80;78.16
69281;SHT31;56392;51.082;17.080;2023-07-22T03:09:02;17.82;78.42
69281;SHT31;56392;51.082;17.080;2023-07-22T03:14:26;17.82;78.46
69281;SHT31;56392;51.082;17.080;2023-07-22T03:19:51;17.84;78.51
69281;SHT31;56392;51.082;17.080;2023-07-22T03:25:15;17.86;78.82
69281;SHT31;56392;51.082;17.080;2023-07-22T03:30:39;17.84;78.99
69281;SHT31;56392;51.082;17.080;2023-07-22T03:36:04;17.87;79.04
69281;SHT31;56392;51.082;17.080;2023-07-22T03:41:27;17.86;78.78
69281;SHT31;56392;51.082;17.080;2023-07-22T03:46:50;17.84;78.53
69281;SHT31;56392;51.082;17.080;2023-07-22T03:52:14;17.89;78.28
69281;SHT31;56392;51.082;17.080;2023-07-22T03:57:40;17.93;78.07
69281;SHT31;56392;51.082;17.080;2023-07-22T04:03:03;17.93;78.12
69281;SHT31;56392;51.082;17.080;2023-07-22T04:08:27;17.90;78.08
69281;SHT31;56392;51.082;17.080;2023-07-22T04:13:50;17.86;78.17
69281;SHT31;56392;51.082;17.080;2023-07-22T04:19:15;17.86;78.99
69281;SHT31;56392;51.082;17.080;2023-07-22T04:24:39;17.90;78.46
69281;SHT31;56392;51.082;17.080;2023-07-22T04:30:03;17.89;78.57
69281;SHT31;56392;51.082;17.080;2023-07-22T04:35:26;17.98;78.22
69281;SHT31;56392;51.082;17.080;2023-07-22T04:40:50;18.10;77.67
69281;SHT31;56392;51.082;17.080;2023-07-22T04:46:13;18.28;76.45
69281;SHT31;56392;51.082;17.080;2023-07-22T04:51:37;18.41;75.52
69281;SHT31;56392;51.082;17.080;2023-07-22T04:57:01;18.51;75.64
69281;SHT31;56392;51.082;17.080;2023-07-22T05:02:24;18.63;75.00
69281;SHT31;56392;51.082;17.080;2023-07-22T05:07:47;18.66;75.16
69281;SHT31;56392;51.082;17.080;2023-07-22T05:13:12;18.83;74.93
69281;SHT31;56392;51.082;17.080;2023-07-22T05:18:35;19.04;74.25
69281;SHT31;56392;51.082;17.080;2023-07-22T05:24:00;19.26;72.89
69281;SHT31;56392;51.082;17.080;2023-07-22T05:29:25;19.54;71.16
69281;SHT31;56392;51.082;17.080;2023-07-22T05:34:48;19.82;70.46
69281;SHT31;56392;51.082;17.080;2023-07-22T05:40:11;20.12;70.06
69281;SHT31;56392;51.082;17.080;2023-07-22T05:45:36;20.36;68.60
69281;SHT31;56392;51.082;17.080;2023-07-22T05:50:59;20.64;67.60
69281;SHT31;56392;51.082;17.080;2023-07-22T05:56:23;20.98;66.72
69281;SHT31;56392;51.082;17.080;2023-07-22T06:01:48;21.30;65.05
69281;SHT31;56392;51.082;17.080;2023-07-22T06:07:11;21.52;62.03
69281;SHT31;56392;51.082;17.080;2023-07-22T06:12:34;21.79;62.92
69281;SHT31;56392;51.082;17.080;2023-07-22T06:17:59;21.93;60.82
69281;SHT31;56392;51.082;17.080;2023-07-22T06:23:22;22.17;62.15
69281;SHT31;56392;51.082;17.080;2023-07-22T06:28:45;22.41;59.92
69281;SHT31;56392;51.082;17.080;2023-07-22T06:34:10;22.58;59.80
69281;SHT31;56392;51.082;17.080;2023-07-22T06:39:33;22.77;60.82
69281;SHT31;56392;51.082;17.080;2023-07-22T06:44:56;22.98;59.01
69281;SHT31;56392;51.082;17.080;2023-07-22T06:50:20;23.04;57.18
69281;SHT31;56392;51.082;17.080;2023-07-22T06:55:48;22.81;57.89
69281;SHT31;56392;51.082;17.080;2023-07-22T07:01:12;22.74;56.91
69281;SHT31;56392;51.082;17.080;2023-07-22T07:06:37;22.69;56.22
69281;SHT31;56392;51.082;17.080;2023-07-22T07:12:00;22.83;56.10
69281;SHT31;56392;51.082;17.080;2023-07-22T07:17:23;22.72;57.20
69281;SHT31;56392;51.082;17.080;2023-07-22T07:22:48;22.74;57.37
69281;SHT31;56392;51.082;17.080;2023-07-22T07:28:11;22.58;57.34
69281;SHT31;56392;51.082;17.080;2023-07-22T07:33:35;22.48;57.35
69281;SHT31;56392;51.082;17.080;2023-07-22T07:39:00;22.84;56.81
69281;SHT31;56392;51.082;17.080;2023-07-22T07:44:24;23.36;54.34
69281;SHT31;56392;51.082;17.080;2023-07-22T07:49:47;23.60;52.68
69281;SHT31;56392;51.082;17.080;2023-07-22T07:55:12;23.94;52.49
69281;SHT31;56392;51.082;17.080;2023-07-22T08:00:35;24.38;51.98
69281;SHT31;56392;51.082;17.080;2023-07-22T08:05:58;24.64;50.17
69281;SHT31;56392;51.082;17.080;2023-07-22T08:11:22;24.83;51.03
69281;SHT31;56392;51.082;17.080;2023-07-22T08:16:45;24.85;47.90
69281;SHT31;56392;51.082;17.080;2023-07-22T08:22:08;25.17;49.31
69281;SHT31;56392;51.082;17.080;2023-07-22T08:27:33;25.47;47.05
69281;SHT31;56392;51.082;17.080;2023-07-22T08:32:56;25.50;48.48
69281;SHT31;56392;51.082;17.080;2023-07-22T08:38:19;25.75;47.63
69281;SHT31;56392;51.082;17.080;2023-07-22T08:43:45;25.82;47.35
69281;SHT31;56392;51.082;17.080;2023-07-22T08:49:09;26.05;47.43
69281;SHT31;56392;51.082;17.080;2023-07-22T08:54:33;26.25;46.03
69281;SHT31;56392;51.082;17.080;2023-07-22T08:59:58;26.45;45.13
69281;SHT31;56392;51.082;17.080;2023-07-22T09:05:22;26.90;42.87
69281;SHT31;56392;51.082;17.080;2023-07-22T09:10:48;26.93;43.49
69281;SHT31;56392;51.082;17.080;2023-07-22T09:16:15;26.66;42.57
69281;SHT31;56392;51.082;17.080;2023-07-22T09:21:40;26.47;43.16
69281;SHT31;56392;51.082;17.080;2023-07-22T09:27:04;26.46;41.34
69281;SHT31;56392;51.082;17.080;2023-07-22T09:32:36;26.72;41.96
69281;SHT31;56392;51.082;17.080;2023-07-22T09:37:59;26.94;41.47
69281;SHT31;56392;51.082;17.080;2023-07-22T09:43:23;27.12;41.91
69281;SHT31;56392;51.082;17.080;2023-07-22T09:48:47;27.12;40.00
69281;SHT31;56392;51.082;17.080;2023-07-22T09:54:10;26.94;40.85
69281;SHT31;56392;51.082;17.080;2023-07-22T09:59:33;27.18;41.60
69281;SHT31;56392;51.082;17.080;2023-07-22T10:04:59;27.38;41.09
69281;SHT31;56392;51.082;17.080;2023-07-22T10:10:26;27.49;41.27
69281;SHT31;56392;51.082;17.080;2023-07-22T10:15:51;27.42;39.73
69281;SHT31;56392;51.082;17.080;2023-07-22T10:21:17;27.27;41.19
69281;SHT31;56392;51.082;17.080;2023-07-22T10:26:40;27.28;40.93
69281;SHT31;56392;51.082;17.080;2023-07-22T10:32:04;26.72;38.63
69281;SHT31;56392;51.082;17.080;2023-07-22T10:37:31;26.63;39.15
69281;SHT31;56392;51.082;17.080;2023-07-22T10:42:58;26.35;39.90
69281;SHT31;56392;51.082;17.080;2023-07-22T10:48:25;25.89;40.83
69281;SHT31;56392;51.082;17.080;2023-07-22T10:53:49;25.99;39.68
69281;SHT31;56392;51.082;17.080;2023-07-22T10:59:13;26.21;39.90
69281;SHT31;56392;51.082;17.080;2023-07-22T11:04:36;26.18;38.64
69281;SHT31;56392;51.082;17.080;2023-07-22T11:10:13;26.25;38.21
69281;SHT31;56392;51.082;17.080;2023-07-22T11:15:37;26.06;38.21
69281;SHT31;56392;51.082;17.080;2023-07-22T11:21:00;25.80;39.75
69281;SHT31;56392;51.082;17.080;2023-07-22T11:26:25;25.57;40.88
69281;SHT31;56392;51.082;17.080;2023-07-22T11:31:49;25.70;40.42
69281;SHT31;56392;51.082;17.080;2023-07-22T11:37:13;25.87;39.24
69281;SHT31;56392;51.082;17.080;2023-07-22T11:42:39;25.78;38.34
69281;SHT31;56392;51.082;17.080;2023-07-22T11:48:09;25.53;38.03
69281;SHT31;56392;51.082;17.080;2023-07-22T11:53:32;25.30;40.16
69281;SHT31;56392;51.082;17.080;2023-07-22T11:58:57;25.13;40.80
69281;SHT31;56392;51.082;17.080;2023-07-22T12:04:23;25.10;40.11
69281;SHT31;56392;51.082;17.080;2023-07-22T12:09:48;25.03;40.29
69281;SHT31;56392;51.082;17.080;2023-07-22T12:15:14;25.19;39.11
69281;SHT31;56392;51.082;17.080;2023-07-22T12:20:40;25.15;39.91
69281;SHT31;56392;51.082;17.080;2023-07-22T12:26:03;24.95;39.78
69281;SHT31;56392;51.082;17.080;2023-07-22T12:31:27;24.96;40.24
69281;SHT31;56392;51.082;17.080;2023-07-22T12:36:50;25.06;38.56
69281;SHT31;56392;51.082;17.080;2023-07-22T12:42:14;25.10;37.92
69281;SHT31;56392;51.082;17.080;2023-07-22T12:47:38;25.02;37.30
69281;SHT31;56392;51.082;17.080;2023-07-22T12:53:02;25.03;35.24
69281;SHT31;56392;51.082;17.080;2023-07-22T12:58:25;25.07;36.59
69281;SHT31;56392;51.082;17.080;2023-07-22T13:03:50;25.15;37.10
69281;SHT31;56392;51.082;17.080;2023-07-22T13:09:12;25.22;36.99
69281;SHT31;56392;51.082;17.080;2023-07-22T13:14:35;25.24;37.62
69281;SHT31;56392;51.082;17.080;2023-07-22T13:20:00;25.17;36.76
69281;SHT31;56392;51.082;17.080;2023-07-22T13:25:23;25.03;36.83
69281;SHT31;56392;51.082;17.080;2023-07-22T13:30:48;25.09;36.04
69281;SHT31;56392;51.082;17.080;2023-07-22T13:36:14;25.06;36.23
69281;SHT31;56392;51.082;17.080;2023-07-22T13:41:37;25.28;37.81
69281;SHT31;56392;51.082;17.080;2023-07-22T13:47:00;25.58;37.39
69281;SHT31;56392;51.082;17.080;2023-07-22T13:52:24;25.74;37.79
69281;SHT31;56392;51.082;17.080;2023-07-22T13:57:47;25.82;38.14
69281;SHT31;56392;51.082;17.080;2023-07-22T14:21:09;25.54;37.91
69281;SHT31;56392;51.082;17.080;2023-07-22T14:26:32;25.40;39.13
69281;SHT31;56392;51.082;17.080;2023-07-22T14:31:56;25.46;38.76
69281;SHT31;56392;51.082;17.080;2023-07-22T14:37:20;25.36;38.11
69281;SHT31;56392;51.082;17.080;2023-07-22T14:42:44;25.43;37.67
69281;SHT31;56392;51.082;17.080;2023-07-22T15:03:49;25.71;40.47
69281;SHT31;56392;51.082;17.080;2023-07-22T15:09:12;26.15;40.84
69281;SHT31;56392;51.082;17.080;2023-07-22T15:14:36;26.36;39.52
69281;SHT31;56392;51.082;17.080;2023-07-22T15:20:00;26.32;38.90
69281;SHT31;56392;51.082;17.080;2023-07-22T15:25:24;26.36;38.28
69281;SHT31;56392;51.082;17.080;2023-07-22T15:30:47;26.40;37.38
69281;SHT31;56392;51.082;17.080;2023-07-22T15:36:11;26.28;36.54
69281;SHT31;56392;51.082;17.080;2023-07-22T15:41:34;26.14;36.32
69281;SHT31;56392;51.082;17.080;2023-07-22T15:46:57;26.19;35.89
69281;SHT31;56392;51.082;17.080;2023-07-22T15:52:21;26.22;36.12
69281;SHT31;56392;51.082;17.080;2023-07-22T15:57:46;26.14;36.10
69281;SHT31;56392;51.082;17.080;2023-07-22T16:03:09;26.12;36.44
69281;SHT31;56392;51.082;17.080;2023-07-22T16:08:34;26.11;36.39
69281;SHT31;56392;51.082;17.080;2023-07-22T16:13:56;26.09;35.92
69281;SHT31;56392;51.082;17.080;2023-07-22T16:19:20;26.05;36.12
69281;SHT31;56392;51.082;17.080;2023-07-22T16:24:44;26.02;36.20
69281;SHT31;56392;51.082;17.080;2023-07-22T16:30:07;26.01;36.16
69281;SHT31;56392;51.082;17.080;2023-07-22T16:35:30;25.95;36.40
69281;SHT31;56392;51.082;17.080;2023-07-22T16:40:55;25.88;36.08
69281;SHT31;56392;51.082;17.080;2023-07-22T16:46:18;25.95;35.40
69281;SHT31;56392;51.082;17.080;2023-07-22T16:51:41;24.71;36.43
69281;SHT31;56392;51.082;17.080;2023-07-22T16:57:07;24.03;37.97
69281;SHT31;56392;51.082;17.080;2023-07-22T17:02:30;23.56;39.63
69281;SHT31;56392;51.082;17.080;2023-07-22T17:07:54;23.35;38.34
69281;SHT31;56392;51.082;17.080;2023-07-22T17:13:21;23.16;38.17
69281;SHT31;56392;51.082;17.080;2023-07-22T17:18:44;23.02;38.90
69281;SHT31;56392;51.082;17.080;2023-07-22T17:24:07;22.85;39.27
69281;SHT31;56392;51.082;17.080;2023-07-22T17:29:31;22.69;39.60
69281;SHT31;56392;51.082;17.080;2023-07-22T17:34:54;22.57;40.48
69281;SHT31;56392;51.082;17.080;2023-07-22T17:40:17;22.50;41.14
69281;SHT31;56392;51.082;17.080;2023-07-22T17:45:42;22.40;41.35
69281;SHT31;56392;51.082;17.080;2023-07-22T17:51:05;22.32;43.23
69281;SHT31;56392;51.082;17.080;2023-07-22T17:56:28;22.18;42.35
69281;SHT31;56392;51.082;17.080;2023-07-22T18:01:52;22.12;44.09
69281;SHT31;56392;51.082;17.080;2023-07-22T18:07:15;22.00;42.68
69281;SHT31;56392;51.082;17.080;2023-07-22T18:12:40;21.88;43.34
69281;SHT31;56392;51.082;17.080;2023-07-22T18:18:05;21.78;44.34
69281;SHT31;56392;51.082;17.080;2023-07-22T18:23:28;21.52;46.91
69281;SHT31;56392;51.082;17.080;2023-07-22T18:28:51;21.25;47.47
69281;SHT31;56392;51.082;17.080;2023-07-22T18:34:16;21.12;48.24
69281;SHT31;56392;51.082;17.080;2023-07-22T18:39:43;21.00;47.77
69281;SHT31;56392;51.082;17.080;2023-07-22T18:45:06;20.80;50.75
69281;SHT31;56392;51.082;17.080;2023-07-22T18:50:31;20.50;52.31
69281;SHT31;56392;51.082;17.080;2023-07-22T18:55:55;20.25;52.52
69281;SHT31;56392;51.082;17.080;2023-07-22T19:01:19;20.08;54.01
69281;SHT31;56392;51.082;17.080;2023-07-22T19:06:43;19.86;53.93
69281;SHT31;56392;51.082;17.080;2023-07-22T19:12:08;19.55;55.31
69281;SHT31;56392;51.082;17.080;2023-07-22T19:17:31;19.44;56.94
69281;SHT31;56392;51.082;17.080;2023-07-22T19:22:56;19.27;58.72
69281;SHT31;56392;51.082;17.080;2023-07-22T19:28:19;19.06;56.65
69281;SHT31;56392;51.082;17.080;2023-07-22T19:33:42;18.89;58.09
69281;SHT31;56392;51.082;17.080;2023-07-22T19:39:07;18.65;60.37
69281;SHT31;56392;51.082;17.080;2023-07-22T19:44:30;18.55;60.78
69281;SHT31;56392;51.082;17.080;2023-07-22T19:49:53;18.62;58.61
69281;SHT31;56392;51.082;17.080;2023-07-22T19:55:19;18.55;59.86
69281;SHT31;56392;51.082;17.080;2023-07-22T20:00:47;18.31;62.66
69281;SHT31;56392;51.082;17.080;2023-07-22T20:06:10;18.00;64.66
69281;SHT31;56392;51.082;17.080;2023-07-22T20:11:35;18.00;63.15
69281;SHT31;56392;51.082;17.080;2023-07-22T20:17:03;17.97;62.36
69281;SHT31;56392;51.082;17.080;2023-07-22T20:22:26;17.84;62.92
69281;SHT31;56392;51.082;17.080;2023-07-22T20:27:51;17.70;64.52
69281;SHT31;56392;51.082;17.080;2023-07-22T20:33:15;17.57;65.23
69281;SHT31;56392;51.082;17.080;2023-07-22T20:38:38;17.42;67.95
69281;SHT31;56392;51.082;17.080;2023-07-22T20:44:02;17.35;68.20
69281;SHT31;56392;51.082;17.080;2023-07-22T20:49:25;17.25;69.62
69281;SHT31;56392;51.082;17.080;2023-07-22T20:54:48;17.28;69.42
69281;SHT31;56392;51.082;17.080;2023-07-22T21:00:14;17.33;68.04
69281;SHT31;56392;51.082;17.080;2023-07-22T21:05:37;17.28;69.16
69281;SHT31;56392;51.082;17.080;2023-07-22T21:11:00;17.22;68.15
69281;SHT31;56392;51.082;17.080;2023-07-22T21:16:24;17.21;67.61
69281;SHT31;56392;51.082;17.080;2023-07-22T21:21:47;17.14;68.27
69281;SHT31;56392;51.082;17.080;2023-07-22T21:27:11;17.04;69.60
69281;SHT31;56392;51.082;17.080;2023-07-22T21:32:35;16.87;69.93
69281;SHT31;56392;51.082;17.080;2023-07-22T21:37:58;16.85;70.08
69281;SHT31;56392;51.082;17.080;2023-07-22T21:43:23;16.72;69.21
69281;SHT31;56392;51.082;17.080;2023-07-22T21:48:47;16.65;70.46
69281;SHT31;56392;51.082;17.080;2023-07-22T21:54:10;16.57;70.97
69281;SHT31;56392;51.082;17.080;2023-07-22T21:59:33;16.50;70.37
69281;SHT31;56392;51.082;17.080;2023-07-22T22:04:59;16.50;69.76
69281;SHT31;56392;51.082;17.080;2023-07-22T22:10:22;16.46;70.44
69281;SHT31;56392;51.082;17.080;2023-07-22T22:15:45;16.47;70.43
69281;SHT31;56392;51.082;17.080;2023-07-22T22:21:10;16.39;70.03
69281;SHT31;56392;51.082;17.080;2023-07-22T22:26:33;16.24;70.64
69281;SHT31;56392;51.082;17.080;2023-07-22T22:31:56;16.20;69.70
69281;SHT31;56392;51.082;17.080;2023-07-22T22:37:21;16.12;70.16
69281;SHT31;56392;51.082;17.080;2023-07-22T22:42:44;16.12;70.23
69281;SHT31;56392;51.082;17.080;2023-07-22T22:48:07;16.00;70.95
69281;SHT31;56392;51.082;17.080;2023-07-22T22:53:31;15.95;71.30
69281;SHT31;56392;51.082;17.080;2023-07-22T22:58:54;15.96;71.28
69281;SHT31;56392;51.082;17.080;2023-07-22T23:04:17;16.08;69.12
69281;SHT31;56392;51.082;17.080;2023-07-22T23:09:41;16.10;70.92
69281;SHT31;56392;51.082;17.080;2023-07-22T23:15:06;15.98;72.80
69281;SHT31;56392;51.082;17.080;2023-07-22T23:20:30;15.88;72.44
69281;SHT31;56392;51.082;17.080;2023-07-22T23:25:55;15.83;72.63
69281;SHT31;56392;51.082;17.080;2023-07-22T23:31:18;15.71;73.29
69281;SHT31;56392;51.082;17.080;2023-07-22T23:36:41;15.62;73.68
69281;SHT31;56392;51.082;17.080;2023-07-22T23:42:06;15.61;73.90
69281;SHT31;56392;51.082;17.080;2023-07-22T23:47:29;15.55;73.29
69281;SHT31;56392;51.082;17.080;2023-07-22T23:52:53;15.54;73.22
69281;SHT31;56392;51.082;17.080;2023-07-22T23:58:17;15.41;73.01
